createdAt,value
2018-03-04T00:01:42.584Z,99093.38
2018-03-04T00:04:11.976Z,99098.22
2018-03-04T00:06:41.539Z,99091.95
2018-03-04T00:09:10.812Z,99091.48
2018-03-04T00:11:40.044Z,99084.30
2018-03-04T00:14:09.801Z,99085.84
2018-03-04T00:16:39.103Z,99083.11
2018-03-04T00:19:08.351Z,99092.44
2018-03-04T00:21:38.156Z,99087.35
2018-03-04T00:24:07.468Z,99091.91
2018-03-04T00:26:37.750Z,99115.38
2018-03-04T00:29:07.518Z,99105.44
2018-03-04T00:31:36.768Z,99099.80
2018-03-04T00:34:06.041Z,99107.58
2018-03-04T00:36:35.753Z,99106.52
2018-03-04T00:39:06.002Z,99101.09
2018-03-04T00:41:35.327Z,99103.68
2018-03-04T00:44:06.126Z,99108.84
2018-03-04T00:46:35.374Z,99102.28
2018-03-04T00:49:05.106Z,99094.72
2018-03-04T00:51:34.658Z,99095.88
2018-03-04T00:54:04.689Z,99092.98
2018-03-04T00:56:34.209Z,99088.16
2018-03-04T00:59:04.226Z,99097.83
2018-03-04T01:01:33.582Z,99106.74
2018-03-04T01:04:03.546Z,99096.45
2018-03-04T01:06:33.196Z,99097.12
2018-03-04T01:09:02.491Z,99095.89
2018-03-04T01:11:31.737Z,99096.05
2018-03-04T01:14:01.548Z,99092.94
2018-03-04T01:16:30.857Z,99099.75
2018-03-04T01:19:00.168Z,99103.89
2018-03-04T01:21:29.838Z,99100.89
2018-03-04T01:23:59.608Z,99097.50
2018-03-04T01:26:28.908Z,99093.08
2018-03-04T01:28:58.592Z,99095.27
2018-03-04T01:31:28.906Z,99099.33
2018-03-04T01:33:58.181Z,99104.73
2018-03-04T01:36:27.951Z,99101.39
2018-03-04T01:38:57.216Z,99093.94
2018-03-04T01:41:27.790Z,99092.20
2018-03-04T01:44:01.532Z,99090.73
2018-03-04T01:46:31.896Z,99089.23
2018-03-04T01:49:01.402Z,99096.36
2018-03-04T01:51:39.383Z,99100.70
2018-03-04T01:54:09.386Z,99106.25
2018-03-04T01:56:39.342Z,99103.70
2018-03-04T01:59:08.674Z,99103.26
2018-03-04T02:01:38.276Z,99106.80
2018-03-04T02:04:07.562Z,99102.20
2018-03-04T02:06:36.787Z,99105.49
2018-03-04T02:09:07.053Z,99105.10
2018-03-04T02:11:36.287Z,99113.21
2018-03-04T02:14:08.361Z,99106.52
2018-03-04T02:16:38.610Z,99105.91
2018-03-04T02:19:07.849Z,99105.42
2018-03-04T02:21:40.222Z,99103.55
2018-03-04T02:24:11.101Z,99099.85
2018-03-04T02:26:40.366Z,99109.64
2018-03-04T02:29:09.647Z,99106.39
2018-03-04T02:31:39.324Z,99099.52
2018-03-04T02:34:08.869Z,99090.06
2018-03-04T02:36:38.098Z,99087.78
2018-03-04T02:39:07.741Z,99094.71
2018-03-04T02:41:37.037Z,99102.44
2018-03-04T02:44:06.284Z,99095.20
2018-03-04T02:46:36.985Z,99094.55
2018-03-04T02:49:06.226Z,99085.06
2018-03-04T02:51:35.467Z,99090.17
2018-03-04T02:54:05.909Z,99090.52
2018-03-04T02:56:35.203Z,99079.14
2018-03-04T02:59:04.630Z,99084.99
2018-03-04T03:01:34.293Z,99079.74
2018-03-04T03:04:04.560Z,99071.83
2018-03-04T03:06:33.857Z,99075.85
2018-03-04T03:09:04.830Z,99068.03
2018-03-04T03:11:34.092Z,99062.83
2018-03-04T03:14:04.917Z,99060.58
2018-03-04T03:16:34.797Z,99068.75
2018-03-04T03:19:04.215Z,99059.02
2018-03-04T03:21:33.469Z,99047.52
2018-03-04T03:24:03.837Z,99044.95
2018-03-04T03:26:33.116Z,99039.76
2018-03-04T03:29:02.445Z,99048.95
2018-03-04T03:31:32.764Z,99053.66
2018-03-04T03:34:03.466Z,99054.75
2018-03-04T03:36:32.927Z,99051.34
2018-03-04T03:39:03.196Z,99058.11
2018-03-04T03:41:34.133Z,99059.57
2018-03-04T03:44:04.930Z,99058.95
2018-03-04T03:46:34.800Z,99044.48
2018-03-04T03:49:04.521Z,99032.68
2018-03-04T03:51:34.226Z,99039.04
2018-03-04T03:54:04.551Z,99037.55
2018-03-04T03:56:33.847Z,99031.05
2018-03-04T03:59:03.463Z,99046.27
2018-03-04T04:01:38.314Z,99038.69
2018-03-04T04:04:07.564Z,99038.88
2018-03-04T04:06:36.849Z,99032.34
2018-03-04T04:09:07.054Z,99038.30
2018-03-04T04:11:36.345Z,99030.67
2018-03-04T04:14:05.762Z,99031.43
2018-03-04T04:16:35.484Z,99019.48
2018-03-04T04:19:05.437Z,99019.84
2018-03-04T04:21:34.856Z,99028.02
2018-03-04T04:24:05.307Z,99024.71
2018-03-04T04:26:34.797Z,99020.33
2018-03-04T04:29:04.022Z,99018.89
2018-03-04T04:31:33.849Z,99023.30
2018-03-04T04:34:05.687Z,99020.05
2018-03-04T04:36:34.896Z,99015.95
2018-03-04T04:39:04.436Z,99013.69
2018-03-04T04:41:33.808Z,99020.45
2018-03-04T04:44:05.656Z,99029.12
2018-03-04T04:46:34.875Z,99028.52
2018-03-04T04:49:04.146Z,99031.32
2018-03-04T04:51:33.982Z,99034.74
2018-03-04T04:54:04.378Z,99027.82
2018-03-04T04:56:33.727Z,99025.11
2018-03-04T04:59:03.821Z,99033.19
2018-03-04T05:01:33.106Z,99033.16
2018-03-04T05:04:04.020Z,99029.95
2018-03-04T05:06:33.275Z,99026.20
2018-03-04T05:09:02.643Z,99027.16
2018-03-04T05:11:32.252Z,99029.65
2018-03-04T05:14:02.621Z,99031.91
2018-03-04T05:16:31.828Z,99034.34
2018-03-04T05:19:02.347Z,99042.67
2018-03-04T05:21:31.740Z,99036.20
2018-03-04T05:24:01.592Z,99037.50
2018-03-04T05:26:31.327Z,99030.44
2018-03-04T05:29:01.388Z,99035.59
2018-03-04T05:31:31.761Z,99035.16
2018-03-04T05:34:02.350Z,99033.69
2018-03-04T05:36:31.579Z,99038.06
2018-03-04T05:39:00.824Z,99036.39
2018-03-04T05:41:30.496Z,99028.69
2018-03-04T05:43:59.717Z,99022.17
2018-03-04T05:46:28.991Z,99025.18
2018-03-04T05:51:30.229Z,99024.15
2018-03-04T05:53:59.529Z,99020.45
2018-03-04T05:56:29.334Z,99026.81
2018-03-04T05:58:58.629Z,99023.08
2018-03-04T06:01:27.963Z,99013.59
2018-03-04T06:03:57.954Z,99015.36
2018-03-04T06:06:27.155Z,99013.53
2018-03-04T06:08:56.528Z,99009.98
2018-03-04T06:11:25.862Z,99005.08
2018-03-04T06:13:55.985Z,99004.51
2018-03-04T06:16:25.320Z,98998.19
2018-03-04T06:18:54.622Z,98999.84
2018-03-04T06:21:24.468Z,98992.41
2018-03-04T06:23:53.817Z,98978.13
2018-03-04T06:26:23.059Z,98975.91
2018-03-04T06:28:53.002Z,98975.49
2018-03-04T06:31:22.375Z,98971.99
2018-03-04T06:33:51.641Z,98982.61
2018-03-04T06:36:21.675Z,98990.06
2018-03-04T06:38:50.941Z,98987.16
2018-03-04T06:41:20.215Z,98988.20
2018-03-04T06:43:50.022Z,98994.11
2018-03-04T06:46:19.246Z,99005.03
2018-03-04T06:48:48.465Z,99021.03
2018-03-04T06:51:18.388Z,99029.73
2018-03-04T06:53:47.663Z,99028.53
2018-03-04T06:56:16.878Z,99043.23
2018-03-04T06:58:46.841Z,99039.37
2018-03-04T07:01:16.165Z,99042.81
2018-03-04T07:03:45.577Z,99048.19
2018-03-04T07:06:16.304Z,99044.11
2018-03-04T07:08:45.623Z,99033.88
2018-03-04T07:11:14.866Z,99033.43
2018-03-04T07:13:47.946Z,99024.81
2018-03-04T07:16:17.558Z,99021.25
2018-03-04T07:18:46.781Z,99029.70
2018-03-04T07:21:16.406Z,99032.86
2018-03-04T07:23:45.622Z,99025.13
2018-03-04T07:26:14.921Z,99021.91
2018-03-04T07:28:44.701Z,99022.72
2018-03-04T07:31:14.225Z,99031.19
2018-03-04T07:33:43.457Z,99033.37
2018-03-04T07:36:12.984Z,99038.25
2018-03-04T07:38:42.342Z,99038.14
2018-03-04T07:41:11.575Z,99028.28
2018-03-04T07:43:41.248Z,99016.03
2018-03-04T07:46:10.577Z,99009.25
2018-03-04T07:48:39.820Z,99011.42
2018-03-04T07:51:09.692Z,99008.39
2018-03-04T07:53:38.908Z,99002.05
2018-03-04T07:56:08.262Z,98988.08
2018-03-04T07:58:37.905Z,98991.96
2018-03-04T08:01:07.115Z,98982.31
2018-03-04T08:03:36.342Z,98984.91
2018-03-04T08:06:06.109Z,98984.66
2018-03-04T08:08:35.321Z,98977.23
2018-03-04T08:11:04.671Z,98980.50
2018-03-04T08:13:34.319Z,98969.38
2018-03-04T08:16:04.389Z,98969.77
2018-03-04T08:18:33.630Z,98980.14
2018-03-04T08:21:02.935Z,98973.33
2018-03-04T08:23:32.195Z,98973.70
2018-03-04T08:28:42.212Z,98967.06
2018-03-04T08:31:11.445Z,98977.83
2018-03-04T08:33:40.968Z,98986.55
2018-03-04T08:36:10.196Z,98987.13
2018-03-04T08:38:39.415Z,98981.95
2018-03-04T08:41:09.086Z,98980.64
2018-03-04T08:43:38.320Z,98978.72
2018-03-04T08:46:07.894Z,98965.19
2018-03-04T08:48:37.562Z,98967.48
2018-03-04T08:51:06.843Z,98963.80
2018-03-04T08:53:36.123Z,98971.37
2018-03-04T08:56:06.997Z,98970.45
2018-03-04T08:58:36.215Z,98963.20
2018-03-04T09:01:05.770Z,98967.95
2018-03-04T09:03:35.498Z,98975.37
2018-03-04T09:06:05.286Z,98974.36
2018-03-04T09:08:34.509Z,98968.46
2018-03-04T09:11:04.654Z,98965.69
2018-03-04T09:13:33.871Z,98959.09
2018-03-04T09:16:03.948Z,98957.40
2018-03-04T09:18:33.744Z,98955.45
2018-03-04T09:21:03.571Z,98950.77
2018-03-04T09:23:32.884Z,98957.12
2018-03-04T09:26:04.601Z,98948.14
2018-03-04T09:28:33.831Z,98942.66
2018-03-04T09:31:03.419Z,98940.56
2018-03-04T09:33:33.042Z,98932.34
2018-03-04T09:36:03.290Z,98937.47
2018-03-04T09:38:32.568Z,98930.41
2018-03-04T09:41:03.764Z,98929.00
2018-03-04T09:43:33.489Z,98927.71
2018-03-04T09:46:04.750Z,98918.68
2018-03-04T09:48:34.559Z,98915.05
2018-03-04T09:51:04.315Z,98911.11
2018-03-04T09:53:33.641Z,98893.95
2018-03-04T09:56:04.128Z,98889.43
2018-03-04T09:58:33.362Z,98888.56
2018-03-04T10:01:02.940Z,98885.19
2018-03-04T10:03:32.412Z,98883.92
2018-03-04T10:06:03.404Z,98864.66
2018-03-04T10:08:33.694Z,98857.79
2018-03-04T10:11:03.448Z,98864.28
2018-03-04T10:13:32.709Z,98869.48
2018-03-04T10:16:03.405Z,98875.34
2018-03-04T10:18:32.650Z,98874.03
2018-03-04T10:21:02.227Z,98870.45
2018-03-04T10:23:31.917Z,98869.16
2018-03-04T10:26:01.624Z,98874.28
2018-03-04T10:28:30.886Z,98868.13
2018-03-04T10:31:00.902Z,98865.14
2018-03-04T10:33:30.155Z,98864.49
2018-03-04T10:35:59.404Z,98866.95
2018-03-04T10:38:29.173Z,98881.78
2018-03-04T10:40:58.800Z,98878.95
2018-03-04T10:43:28.009Z,98879.41
2018-03-04T10:45:57.923Z,98881.86
2018-03-04T10:48:27.436Z,98885.81
2018-03-04T10:50:56.911Z,98884.98
2018-03-04T10:53:26.948Z,98890.64
2018-03-04T10:55:56.405Z,98880.06
2018-03-04T10:58:26.181Z,98882.19
2018-03-04T11:00:57.800Z,98876.67
2018-03-04T11:03:27.118Z,98879.09
2018-03-04T11:05:59.789Z,98879.91
2018-03-04T11:08:30.022Z,98867.14
2018-03-04T11:10:59.475Z,98868.47
2018-03-04T11:13:28.797Z,98866.48
2018-03-04T11:16:00.405Z,98865.64
2018-03-04T11:18:32.525Z,98865.69
2018-03-04T11:21:05.270Z,98860.50
2018-03-04T11:23:35.985Z,98861.31
2018-03-04T11:26:07.916Z,98857.80
2018-03-04T11:28:37.611Z,98854.59
2018-03-04T11:31:07.566Z,98852.30
2018-03-04T11:33:40.124Z,98853.38
2018-03-04T11:36:11.037Z,98843.41
2018-03-04T11:38:40.510Z,98852.37
2018-03-04T11:41:10.017Z,98837.70
2018-03-04T11:43:40.141Z,98840.74
2018-03-04T11:46:10.325Z,98833.39
2018-03-04T11:48:40.159Z,98833.66
2018-03-04T11:51:11.016Z,98823.08
2018-03-04T11:53:41.106Z,98822.03
2018-03-04T11:56:10.997Z,98818.75
2018-03-04T11:58:40.847Z,98824.34
2018-03-04T12:01:10.644Z,98815.92
2018-03-04T12:03:40.234Z,98817.49
2018-03-04T12:06:09.587Z,98809.83
2018-03-04T12:08:39.286Z,98806.02
2018-03-04T12:11:08.598Z,98799.22
2018-03-04T12:13:38.006Z,98792.38
2018-03-04T12:16:08.050Z,98791.31
2018-03-04T12:18:37.405Z,98768.84
2018-03-04T12:21:07.027Z,98773.11
2018-03-04T12:23:37.684Z,98761.41
2018-03-04T12:26:10.099Z,98747.82
2018-03-04T12:28:39.640Z,98737.46
2018-03-04T12:31:09.754Z,98727.33
2018-03-04T12:33:39.522Z,98720.07
2018-03-04T12:36:08.773Z,98718.84
2018-03-04T12:38:38.167Z,98714.21
2018-03-04T12:43:48.005Z,98711.34
2018-03-04T12:46:17.628Z,98703.29
2018-03-04T12:48:47.258Z,98707.20
2018-03-04T12:51:16.575Z,98702.92
2018-03-04T12:53:45.923Z,98694.28
2018-03-04T12:56:15.232Z,98686.70
2018-03-04T12:58:44.606Z,98682.26
2018-03-04T13:01:14.469Z,98681.30
2018-03-04T13:03:43.774Z,98686.83
2018-03-04T13:06:13.064Z,98682.98
2018-03-04T13:08:42.896Z,98682.00
2018-03-04T13:11:12.113Z,98673.64
2018-03-04T13:13:41.637Z,98670.08
2018-03-04T13:16:11.426Z,98668.46
2018-03-04T13:18:41.006Z,98665.39
2018-03-04T13:21:10.291Z,98652.20
2018-03-04T13:23:39.724Z,98642.35
2018-03-04T13:26:09.091Z,98645.00
2018-03-04T13:28:38.930Z,98647.85
2018-03-04T13:31:08.424Z,98641.58
2018-03-04T13:33:37.789Z,98638.06
2018-03-04T13:36:07.617Z,98628.16
2018-03-04T13:38:36.864Z,98623.95
2018-03-04T13:41:06.388Z,98621.80
2018-03-04T13:43:36.040Z,98616.39
2018-03-04T13:46:06.700Z,98617.35
2018-03-04T13:48:35.976Z,98613.97
2018-03-04T13:51:06.323Z,98609.90
2018-03-04T13:53:35.698Z,98608.82
2018-03-04T13:56:06.533Z,98616.56
2018-03-04T13:58:38.014Z,98616.24
2018-03-04T14:01:08.332Z,98620.33
2018-03-04T14:03:39.388Z,98622.47
2018-03-04T14:06:11.150Z,98626.55
2018-03-04T14:08:41.607Z,98621.62
2018-03-04T14:11:11.399Z,98609.70
2018-03-04T14:13:40.754Z,98615.91
2018-03-04T14:16:10.057Z,98612.11
2018-03-04T14:18:40.661Z,98602.23
2018-03-04T14:21:09.940Z,98607.86
2018-03-04T14:23:39.204Z,98602.58
2018-03-04T14:26:09.538Z,98602.36
2018-03-04T14:28:38.821Z,98593.95
2018-03-04T14:31:08.169Z,98585.73
2018-03-04T14:33:37.842Z,98593.88
2018-03-04T14:36:07.114Z,98585.17
2018-03-04T14:38:36.388Z,98576.63
2018-03-04T14:41:07.010Z,98565.77
2018-03-04T14:43:36.345Z,98558.02
2018-03-04T14:46:06.484Z,98558.20
2018-03-04T14:48:35.766Z,98563.52
2018-03-04T14:51:05.670Z,98567.42
2018-03-04T14:53:35.299Z,98561.92
2018-03-04T14:56:05.599Z,98557.52
2018-03-04T14:58:34.891Z,98558.27
2018-03-04T15:01:05.708Z,98553.99
2018-03-04T15:03:35.004Z,98564.36
2018-03-04T15:06:04.872Z,98557.00
2018-03-04T15:08:34.487Z,98560.40
2018-03-04T15:11:03.852Z,98559.30
2018-03-04T15:13:33.109Z,98566.30
2018-03-04T15:16:03.263Z,98573.17
2018-03-04T15:18:32.546Z,98568.41
2018-03-04T15:21:02.582Z,98571.64
2018-03-04T15:23:32.395Z,98571.66
2018-03-04T15:26:02.249Z,98569.39
2018-03-04T15:28:31.638Z,98577.01
2018-03-04T15:31:01.118Z,98566.78
2018-03-04T15:33:30.503Z,98552.87
2018-03-04T15:36:07.284Z,98546.96
2018-03-04T15:38:42.263Z,98538.11
2018-03-04T15:41:12.208Z,98533.81
2018-03-04T15:43:41.802Z,98523.84
2018-03-04T15:46:11.308Z,98525.02
2018-03-04T15:48:40.874Z,98533.25
2018-03-04T15:51:10.184Z,98523.76
2018-03-04T15:53:39.601Z,98520.85
2018-03-04T15:56:09.467Z,98517.13
2018-03-04T15:58:39.367Z,98513.32
2018-03-04T16:01:09.613Z,98513.66
2018-03-04T16:03:39.243Z,98515.80
2018-03-04T16:06:08.934Z,98512.39
2018-03-04T16:08:38.259Z,98507.13
2018-03-04T16:11:07.793Z,98511.09
2018-03-04T16:13:37.104Z,98506.36
2018-03-04T16:16:07.553Z,98496.33
2018-03-04T16:18:37.268Z,98490.78
2018-03-04T16:21:06.625Z,98490.37
2018-03-04T16:23:36.028Z,98491.90
2018-03-04T16:26:07.580Z,98489.53
2018-03-04T16:28:37.067Z,98493.16
2018-03-04T16:31:06.490Z,98505.28
2018-03-04T16:33:36.153Z,98514.27
2018-03-04T16:36:06.576Z,98510.31
2018-03-04T16:38:35.965Z,98506.25
2018-03-04T16:41:05.422Z,98505.97
2018-03-04T16:43:34.905Z,98501.05
2018-03-04T16:46:05.810Z,98495.42
2018-03-04T16:48:35.237Z,98491.13
2018-03-04T16:51:04.935Z,98476.28
2018-03-04T16:53:34.685Z,98472.27
2018-03-04T16:56:05.538Z,98472.27
2018-03-04T16:58:34.933Z,98478.08
2018-03-04T17:01:05.067Z,98467.34
2018-03-04T17:03:34.681Z,98481.19
2018-03-04T17:06:05.287Z,98480.35
2018-03-04T17:08:35.047Z,98474.88
2018-03-04T17:11:04.630Z,98478.77
2018-03-04T17:13:33.904Z,98474.70
2018-03-04T17:16:04.597Z,98476.58
2018-03-04T17:18:33.859Z,98474.84
2018-03-04T17:21:03.707Z,98472.18
2018-03-04T17:23:33.130Z,98471.31
2018-03-04T17:26:04.180Z,98477.20
2018-03-04T17:28:33.728Z,98480.26
2018-03-04T17:31:03.091Z,98483.78
2018-03-04T17:33:32.476Z,98481.03
2018-03-04T17:36:03.499Z,98488.72
2018-03-04T17:38:32.762Z,98485.03
2018-03-04T17:41:02.183Z,98486.02
2018-03-04T17:43:31.925Z,98482.33
2018-03-04T17:46:01.779Z,98482.89
2018-03-04T17:48:31.059Z,98485.95
2018-03-04T17:51:01.092Z,98490.64
2018-03-04T17:53:30.463Z,98483.67
2018-03-04T17:55:59.766Z,98485.13
2018-03-04T17:58:29.765Z,98494.88
2018-03-04T18:01:01.298Z,98480.00
2018-03-04T18:03:30.649Z,98484.69
2018-03-04T18:05:59.965Z,98480.27
2018-03-04T18:08:29.395Z,98471.25
2018-03-04T18:10:59.369Z,98479.89
2018-03-04T18:13:28.802Z,98480.09
2018-03-04T18:15:58.338Z,98485.55
2018-03-04T18:18:28.003Z,98474.80
2018-03-04T18:20:57.397Z,98474.80
2018-03-04T18:23:26.701Z,98482.22
2018-03-04T18:25:57.487Z,98476.61
2018-03-04T18:28:26.782Z,98475.22
2018-03-04T18:30:56.259Z,98469.47
2018-03-04T18:33:25.571Z,98466.14
2018-03-04T18:35:54.974Z,98465.61
2018-03-04T18:38:24.234Z,98468.09
2018-03-04T18:40:54.170Z,98469.13
2018-03-04T18:43:23.592Z,98467.79
2018-03-04T18:45:53.014Z,98464.01
2018-03-04T18:48:22.365Z,98469.98
2018-03-04T18:50:51.689Z,98464.62
2018-03-04T18:53:21.466Z,98467.55
2018-03-04T18:55:50.932Z,98470.09
2018-03-04T18:58:20.739Z,98470.45
2018-03-04T19:00:50.702Z,98476.69
2018-03-04T19:03:20.077Z,98477.30
2018-03-04T19:05:49.370Z,98471.13
2018-03-04T19:08:19.153Z,98469.98
2018-03-04T19:10:48.607Z,98468.88
2018-03-04T19:13:17.975Z,98466.33
2018-03-04T19:15:47.321Z,98457.05
2018-03-04T19:18:16.640Z,98457.67
2018-03-04T19:20:46.379Z,98460.17
2018-03-04T19:23:15.697Z,98462.92
2018-03-04T19:25:45.286Z,98471.35
2018-03-04T19:28:15.293Z,98470.03
2018-03-04T19:30:44.838Z,98471.83
2018-03-04T19:33:14.523Z,98466.28
2018-03-04T19:35:46.320Z,98471.88
2018-03-04T19:38:15.582Z,98481.84
2018-03-04T19:40:44.974Z,98477.80
2018-03-04T19:43:15.713Z,98486.89
2018-03-04T19:45:45.416Z,98479.78
2018-03-04T19:48:14.914Z,98484.45
2018-03-04T19:50:44.732Z,98485.58
2018-03-04T19:53:14.633Z,98490.80
2018-03-04T19:55:44.113Z,98504.41
2018-03-04T19:58:13.528Z,98503.41
2018-03-04T20:00:45.407Z,98508.77
2018-03-04T20:03:19.763Z,98521.21
2018-03-04T20:05:49.422Z,98519.39
2018-03-04T20:08:18.776Z,98515.77
2018-03-04T20:10:48.008Z,98515.48
2018-03-04T20:15:50.997Z,98525.73
2018-03-04T20:18:20.343Z,98532.81
2018-03-04T20:20:49.692Z,98551.30
2018-03-04T20:23:19.373Z,98557.73
2018-03-04T20:25:49.274Z,98560.09
2018-03-04T20:28:18.700Z,98563.41
2018-03-04T20:30:48.426Z,98559.66
2018-03-04T20:33:17.787Z,98567.78
2018-03-04T20:35:47.137Z,98569.19
2018-03-04T20:38:16.790Z,98572.51
2018-03-04T20:40:46.401Z,98578.61
2018-03-04T20:43:15.715Z,98582.59
2018-03-04T20:45:45.440Z,98580.24
2018-03-04T20:48:15.178Z,98585.78
2018-03-04T20:50:46.144Z,98603.41
2018-03-04T20:53:15.988Z,98600.26
2018-03-04T20:55:45.327Z,98608.37
2018-03-04T20:58:14.813Z,98615.12
2018-03-04T21:00:44.579Z,98620.13
2018-03-04T21:03:13.865Z,98617.27
2018-03-04T21:05:43.258Z,98629.13
2018-03-04T21:08:13.035Z,98627.48
2018-03-04T21:10:42.327Z,98646.16
2018-03-04T21:13:11.600Z,98643.77
2018-03-04T21:15:42.284Z,98649.66
2018-03-04T21:18:11.727Z,98649.81
2018-03-04T21:20:41.008Z,98650.09
2018-03-04T21:23:10.701Z,98653.80
2018-03-04T21:25:39.946Z,98649.56
2018-03-04T21:28:09.255Z,98651.47
2018-03-04T21:30:38.899Z,98650.94
2018-03-04T21:33:08.327Z,98652.02
2018-03-04T21:35:37.562Z,98660.25
2018-03-04T21:38:07.246Z,98664.83
2018-03-04T21:40:36.519Z,98669.50
2018-03-04T21:43:06.258Z,98680.05
2018-03-04T21:45:35.521Z,98683.86
2018-03-04T21:48:05.794Z,98686.65
2018-03-04T21:50:35.373Z,98684.23
2018-03-04T21:53:04.641Z,98685.01
2018-03-04T21:55:33.867Z,98683.11
2018-03-04T21:58:07.023Z,98686.95
2018-03-04T22:00:36.943Z,98683.23
2018-03-04T22:03:06.378Z,98682.02
2018-03-04T22:05:36.136Z,98680.95
2018-03-04T22:08:06.484Z,98691.19
2018-03-04T22:10:35.820Z,98704.73
2018-03-04T22:13:07.364Z,98711.56
2018-03-04T22:15:36.888Z,98729.06
2018-03-04T22:18:06.843Z,98735.81
2018-03-04T22:20:36.199Z,98738.29
2018-03-04T22:23:08.568Z,98745.70
2018-03-04T22:25:44.919Z,98741.84
2018-03-04T22:28:18.193Z,98740.04
2018-03-04T22:30:47.712Z,98737.94
2018-03-04T22:33:17.081Z,98746.60
2018-03-04T22:35:49.450Z,98742.40
2018-03-04T22:38:19.221Z,98745.60
2018-03-04T22:40:48.634Z,98748.59
2018-03-04T22:43:19.360Z,98750.39
2018-03-04T22:45:50.215Z,98755.55
2018-03-04T22:48:21.077Z,98754.45
2018-03-04T22:50:50.796Z,98762.33
2018-03-04T22:53:21.352Z,98775.00
2018-03-04T22:55:50.751Z,98782.34
2018-03-04T22:58:20.039Z,98787.09
2018-03-04T23:00:49.959Z,98794.73
2018-03-04T23:03:19.216Z,98786.23
2018-03-04T23:05:48.434Z,98802.31
2018-03-04T23:08:18.106Z,98805.59
2018-03-04T23:10:47.314Z,98801.53
2018-03-04T23:13:17.082Z,98813.54
2018-03-04T23:15:46.724Z,98817.92
2018-03-04T23:18:15.943Z,98813.89
2018-03-04T23:20:45.883Z,98819.05
2018-03-04T23:23:16.674Z,98820.13
2018-03-04T23:27:15.494Z,98813.85
2018-03-04T23:29:45.126Z,98815.62
2018-03-04T23:32:14.550Z,98821.28
2018-03-04T23:34:43.780Z,98820.24
2018-03-04T23:37:13.469Z,98831.44
2018-03-04T23:39:42.701Z,98827.36
2018-03-04T23:42:12.303Z,98825.09
2018-03-04T23:44:41.521Z,98818.52
2018-03-04T23:47:10.791Z,98828.97
2018-03-04T23:49:40.422Z,98831.74
2018-03-04T23:52:09.679Z,98831.59
2018-03-04T23:54:39.026Z,98836.28
2018-03-04T23:57:09.744Z,98830.97
2018-03-04T23:59:39.003Z,98832.85
